createdAt,value
2019-06-26T00:02:03.497Z,99.05
2019-06-26T00:04:31.839Z,100.00
2019-06-26T00:07:00.190Z,98.95
2019-06-26T00:09:28.540Z,100.00
2019-06-26T00:14:32.197Z,100.00
2019-06-26T00:17:00.554Z,100.00
2019-06-26T00:19:29.813Z,100.00
2019-06-26T00:22:00.160Z,100.00
2019-06-26T00:24:28.502Z,100.00
2019-06-26T00:27:20.212Z,100.00
2019-06-26T00:32:26.671Z,100.00
2019-06-26T00:34:56.036Z,100.00
2019-06-26T00:37:26.307Z,100.00
2019-06-26T00:39:54.660Z,100.00
2019-06-26T00:47:34.757Z,100.00
2019-06-26T00:50:03.136Z,100.00
2019-06-26T00:52:31.480Z,100.00
2019-06-26T00:57:34.180Z,100.00
2019-06-26T01:02:36.805Z,100.00
2019-06-26T01:05:07.104Z,100.00
2019-06-26T01:07:35.511Z,100.00
2019-06-26T01:10:05.214Z,100.00
2019-06-26T01:12:33.569Z,100.00
2019-06-26T01:15:01.948Z,100.00
2019-06-26T01:17:30.302Z,100.00
2019-06-26T01:19:58.720Z,100.00
2019-06-26T01:22:27.126Z,100.00
2019-06-26T01:24:55.465Z,100.00
2019-06-26T01:27:23.828Z,100.00
2019-06-26T01:29:52.207Z,100.00
2019-06-26T01:32:20.560Z,100.00
2019-06-26T01:37:23.213Z,100.00
2019-06-26T01:39:51.602Z,100.00
2019-06-26T01:42:19.948Z,100.00
2019-06-26T01:44:49.237Z,100.00
2019-06-26T01:49:53.839Z,100.00
2019-06-26T01:52:22.192Z,100.00
2019-06-26T01:54:58.641Z,100.00
2019-06-26T01:57:26.988Z,100.00
2019-06-26T01:59:55.349Z,100.00
2019-06-26T02:02:25.654Z,100.00
2019-06-26T02:05:04.044Z,100.00
2019-06-26T02:07:32.410Z,100.00
2019-06-26T02:10:00.779Z,100.00
2019-06-26T02:12:30.033Z,100.00
2019-06-26T02:15:01.644Z,100.00
2019-06-26T02:17:29.975Z,100.00
2019-06-26T02:19:59.285Z,100.00
2019-06-26T02:22:27.657Z,100.00
2019-06-26T02:25:02.864Z,100.00
2019-06-26T02:27:31.269Z,100.00
2019-06-26T02:29:59.587Z,100.00
2019-06-26T02:32:27.945Z,100.00
2019-06-26T02:34:58.287Z,100.00
2019-06-26T02:37:26.654Z,100.00
2019-06-26T02:40:03.020Z,100.00
2019-06-26T02:42:31.374Z,100.00
2019-06-26T02:44:59.752Z,100.00
2019-06-26T02:47:28.104Z,100.00
2019-06-26T02:49:56.476Z,100.00
2019-06-26T02:52:25.754Z,100.00
2019-06-26T02:54:56.053Z,100.00
2019-06-26T02:57:26.305Z,100.00
2019-06-26T03:00:12.330Z,100.00
2019-06-26T03:02:41.604Z,100.00
2019-06-26T03:05:10.933Z,100.00
2019-06-26T03:07:39.289Z,100.00
2019-06-26T03:10:11.067Z,100.00
2019-06-26T03:12:39.424Z,100.00
2019-06-26T03:17:54.666Z,100.00
2019-06-26T03:20:25.545Z,100.00
2019-06-26T03:23:13.255Z,100.00
2019-06-26T03:25:41.621Z,100.00
2019-06-26T03:28:09.981Z,100.00
2019-06-26T03:30:38.351Z,100.00
2019-06-26T03:33:21.649Z,100.00
2019-06-26T03:38:24.292Z,100.00
2019-06-26T03:40:53.645Z,100.00
2019-06-26T03:48:31.447Z,100.00
2019-06-26T03:50:59.832Z,100.00
2019-06-26T03:53:28.201Z,100.00
2019-06-26T03:55:57.546Z,100.00
2019-06-26T03:58:25.896Z,100.00
2019-06-26T04:00:54.266Z,100.00
2019-06-26T04:03:22.612Z,100.00
2019-06-26T04:08:26.097Z,100.00
2019-06-26T04:10:54.477Z,100.00
2019-06-26T04:13:23.753Z,100.00
2019-06-26T04:15:53.092Z,100.00
2019-06-26T04:18:25.642Z,100.00
2019-06-26T04:20:55.994Z,100.00
2019-06-26T04:23:26.261Z,100.00
2019-06-26T04:25:54.621Z,100.00
2019-06-26T04:28:24.889Z,100.00
2019-06-26T04:33:27.523Z,100.00
2019-06-26T04:35:55.925Z,100.00
2019-06-26T04:38:24.349Z,100.00
2019-06-26T04:40:52.701Z,100.00
2019-06-26T04:43:21.056Z,100.00
2019-06-26T04:45:58.162Z,100.00
2019-06-26T04:48:17.782Z,100.00
2019-06-26T04:50:46.146Z,100.00
2019-06-26T04:55:48.817Z,99.63
2019-06-26T04:58:17.199Z,99.56
2019-06-26T05:03:19.873Z,98.13
2019-06-26T05:05:48.231Z,99.05
2019-06-26T05:08:16.581Z,98.00
2019-06-26T05:10:44.931Z,97.54
2019-06-26T05:13:13.282Z,96.65
2019-06-26T05:15:41.624Z,96.22
2019-06-26T05:18:09.983Z,93.34
2019-06-26T05:20:38.314Z,90.04
2019-06-26T05:23:07.640Z,89.04
2019-06-26T05:25:36.015Z,88.09
2019-06-26T05:28:07.329Z,88.32
2019-06-26T05:33:07.064Z,88.84
2019-06-26T05:35:35.532Z,89.98
2019-06-26T05:38:03.769Z,90.54
2019-06-26T05:40:32.110Z,91.20
2019-06-26T05:43:00.457Z,91.28
2019-06-26T05:48:10.001Z,88.05
2019-06-26T05:50:38.350Z,87.12
2019-06-26T05:53:09.773Z,85.91
2019-06-26T05:58:14.412Z,85.21
2019-06-26T06:00:42.775Z,85.56
2019-06-26T06:03:12.309Z,84.93
2019-06-26T06:05:40.656Z,85.55
2019-06-26T06:08:09.004Z,84.80
2019-06-26T06:10:37.365Z,85.27
2019-06-26T06:13:05.748Z,83.92
2019-06-26T06:15:38.438Z,81.33
2019-06-26T06:18:06.761Z,83.78
2019-06-26T06:20:35.908Z,80.75
2019-06-26T06:23:06.238Z,81.87
2019-06-26T06:25:34.600Z,78.12
2019-06-26T06:28:04.122Z,74.32
2019-06-26T06:33:06.831Z,72.82
2019-06-26T06:35:35.164Z,71.95
2019-06-26T06:38:03.530Z,71.76
2019-06-26T06:40:31.868Z,70.41
2019-06-26T06:43:01.208Z,72.14
2019-06-26T06:45:32.873Z,71.50
2019-06-26T06:51:07.646Z,72.73
2019-06-26T06:53:35.998Z,73.63
2019-06-26T06:56:10.326Z,71.08
2019-06-26T06:58:38.711Z,70.43
2019-06-26T07:01:07.090Z,73.38
2019-06-26T07:03:35.426Z,70.28
2019-06-26T07:06:03.793Z,69.84
2019-06-26T07:08:35.867Z,69.72
2019-06-26T07:11:04.279Z,69.29
2019-06-26T07:13:51.946Z,67.87
2019-06-26T07:16:20.320Z,64.72
2019-06-26T07:18:52.319Z,66.83
2019-06-26T07:24:05.006Z,64.21
2019-06-26T07:26:45.701Z,66.01
2019-06-26T07:29:21.776Z,64.02
2019-06-26T07:31:51.044Z,60.28
2019-06-26T07:36:57.693Z,61.02
2019-06-26T07:39:26.032Z,59.54
2019-06-26T07:41:54.375Z,61.91
2019-06-26T07:44:22.726Z,62.08
2019-06-26T07:49:25.449Z,56.10
2019-06-26T07:51:57.102Z,57.91
2019-06-26T07:54:25.548Z,55.82
2019-06-26T07:56:53.792Z,55.61
2019-06-26T07:59:23.040Z,56.56
2019-06-26T08:01:56.168Z,55.95
2019-06-26T08:04:24.522Z,52.62
2019-06-26T08:06:52.902Z,55.27
2019-06-26T08:09:22.219Z,57.21
2019-06-26T08:11:50.506Z,54.82
2019-06-26T08:14:22.178Z,56.00
2019-06-26T08:16:51.472Z,56.17
2019-06-26T08:19:19.830Z,54.80
2019-06-26T08:21:48.188Z,54.89
2019-06-26T08:24:18.488Z,54.38
2019-06-26T08:26:47.828Z,52.33
2019-06-26T08:29:17.073Z,54.35
2019-06-26T08:31:46.407Z,53.07
2019-06-26T08:34:20.583Z,53.59
2019-06-26T08:39:25.256Z,51.97
2019-06-26T08:41:53.600Z,51.69
2019-06-26T08:44:21.948Z,50.20
2019-06-26T08:49:29.797Z,49.91
2019-06-26T08:54:32.388Z,48.19
2019-06-26T08:57:00.750Z,48.04
2019-06-26T08:59:30.006Z,48.16
2019-06-26T09:01:59.336Z,48.59
2019-06-26T09:04:27.684Z,49.16
2019-06-26T09:06:56.032Z,51.84
2019-06-26T09:09:24.376Z,49.35
2019-06-26T09:11:54.629Z,52.08
2019-06-26T09:14:22.972Z,54.79
2019-06-26T09:16:51.329Z,50.81
2019-06-26T09:22:14.321Z,48.72
2019-06-26T09:24:42.642Z,49.50
2019-06-26T09:27:15.327Z,47.95
2019-06-26T09:29:51.241Z,48.32
2019-06-26T09:32:20.571Z,44.69
2019-06-26T09:37:25.543Z,42.39
2019-06-26T09:42:28.125Z,41.57
2019-06-26T09:47:31.197Z,34.83
2019-06-26T09:50:21.099Z,34.70
2019-06-26T09:52:50.450Z,31.72
2019-06-26T09:55:21.667Z,35.63
2019-06-26T09:57:50.037Z,30.51
2019-06-26T10:00:23.109Z,29.91
2019-06-26T10:03:21.559Z,32.59
2019-06-26T10:05:53.864Z,33.79
2019-06-26T10:08:22.833Z,33.46
2019-06-26T10:10:51.179Z,28.95
2019-06-26T10:13:21.451Z,31.01
2019-06-26T10:15:49.757Z,27.65
2019-06-26T10:18:22.147Z,27.23
2019-06-26T10:20:50.485Z,29.97
2019-06-26T10:23:18.825Z,28.06
2019-06-26T10:26:05.440Z,24.43
2019-06-26T10:28:33.797Z,28.84
2019-06-26T10:33:37.062Z,27.26
2019-06-26T10:36:05.403Z,26.03
2019-06-26T10:38:34.570Z,26.82
2019-06-26T10:41:06.843Z,24.03
2019-06-26T10:43:35.190Z,25.91
2019-06-26T10:46:03.570Z,22.77
2019-06-26T10:48:32.804Z,21.85
2019-06-26T10:51:01.160Z,25.65
2019-06-26T10:53:30.446Z,24.28
2019-06-26T10:56:02.595Z,22.52
2019-06-26T10:58:31.210Z,23.11
2019-06-26T11:01:03.333Z,23.97
2019-06-26T11:03:32.569Z,24.06
2019-06-26T11:06:02.826Z,23.53
2019-06-26T11:08:31.190Z,22.85
2019-06-26T11:11:00.545Z,23.34
2019-06-26T11:13:28.840Z,22.46
2019-06-26T11:18:34.593Z,23.11
2019-06-26T11:23:37.366Z,21.93
2019-06-26T11:26:05.738Z,22.21
2019-06-26T11:28:34.081Z,20.63
2019-06-26T11:31:07.192Z,19.70
2019-06-26T11:33:35.537Z,22.47
2019-06-26T11:36:03.910Z,20.76
2019-06-26T11:38:32.248Z,21.35
2019-06-26T11:41:10.935Z,20.82
2019-06-26T11:43:39.297Z,20.29
2019-06-26T11:46:07.632Z,20.83
2019-06-26T11:48:35.982Z,22.02
2019-06-26T11:51:04.345Z,22.24
2019-06-26T11:53:32.686Z,21.22
2019-06-26T11:56:08.396Z,19.66
2019-06-26T11:58:36.686Z,19.86
2019-06-26T12:01:05.033Z,21.19
2019-06-26T12:03:33.376Z,20.59
2019-06-26T12:06:15.181Z,19.63
2019-06-26T12:08:30.086Z,19.60
2019-06-26T12:10:58.439Z,20.02
2019-06-26T12:13:26.794Z,19.85
2019-06-26T12:15:56.045Z,22.18
2019-06-26T12:18:24.385Z,23.03
2019-06-26T12:20:53.218Z,21.11
2019-06-26T12:23:21.434Z,21.19
2019-06-26T12:28:24.192Z,21.21
2019-06-26T12:30:52.556Z,18.67
2019-06-26T12:33:21.801Z,20.20
2019-06-26T12:35:52.134Z,18.38
2019-06-26T12:38:22.427Z,19.78
2019-06-26T12:40:52.677Z,18.73
2019-06-26T12:43:21.055Z,19.35
2019-06-26T12:46:19.981Z,20.37
2019-06-26T12:48:49.313Z,18.21
2019-06-26T12:51:18.562Z,18.36
2019-06-26T12:53:51.385Z,18.94
2019-06-26T12:56:21.633Z,18.95
2019-06-26T12:58:50.940Z,19.37
2019-06-26T13:01:25.082Z,18.24
2019-06-26T13:03:50.593Z,19.51
2019-06-26T13:08:53.179Z,19.77
2019-06-26T13:11:21.549Z,19.15
2019-06-26T13:14:03.302Z,18.37
2019-06-26T13:16:31.521Z,17.70
2019-06-26T13:18:59.825Z,18.77
2019-06-26T13:21:28.215Z,20.65
2019-06-26T13:23:57.539Z,19.70
2019-06-26T13:26:25.882Z,19.21
2019-06-26T13:28:55.143Z,19.97
2019-06-26T13:31:23.569Z,20.87
2019-06-26T13:33:51.909Z,19.82
2019-06-26T13:36:20.252Z,20.00
2019-06-26T13:38:52.499Z,20.19
2019-06-26T13:43:59.938Z,21.11
2019-06-26T13:46:25.417Z,19.86
2019-06-26T13:48:59.328Z,19.08
2019-06-26T13:51:27.683Z,18.62
2019-06-26T13:53:56.058Z,20.20
2019-06-26T13:56:24.401Z,19.63
2019-06-26T13:59:06.509Z,19.67
2019-06-26T14:04:09.613Z,24.46
2019-06-26T14:06:37.961Z,21.01
2019-06-26T14:14:22.289Z,20.55
2019-06-26T14:19:26.634Z,20.10
2019-06-26T14:22:02.038Z,21.51
2019-06-26T14:24:30.401Z,21.50
2019-06-26T14:26:58.756Z,23.86
2019-06-26T14:29:27.114Z,23.76
2019-06-26T14:31:55.464Z,22.45
2019-06-26T14:34:26.971Z,20.58
2019-06-26T14:36:56.154Z,20.00
2019-06-26T14:39:24.501Z,21.36
2019-06-26T14:41:52.868Z,20.19
2019-06-26T14:44:23.152Z,19.58
2019-06-26T14:46:55.415Z,20.39
2019-06-26T14:49:23.792Z,19.18
2019-06-26T14:51:52.177Z,20.74
2019-06-26T14:54:20.535Z,21.26
2019-06-26T14:56:48.890Z,19.74
2019-06-26T14:59:17.286Z,18.33
2019-06-26T15:01:45.630Z,19.50
2019-06-26T15:04:21.225Z,21.58
2019-06-26T15:06:53.382Z,21.46
2019-06-26T15:09:21.752Z,20.97
2019-06-26T15:11:50.111Z,21.05
2019-06-26T15:14:19.448Z,20.99
2019-06-26T15:16:50.947Z,20.69
2019-06-26T15:19:22.837Z,22.11
2019-06-26T15:22:02.541Z,23.58
2019-06-26T15:24:30.920Z,21.90
2019-06-26T15:26:59.292Z,21.84
2019-06-26T15:29:27.661Z,19.61
2019-06-26T15:31:58.000Z,21.55
2019-06-26T15:34:26.428Z,21.23
2019-06-26T15:37:15.293Z,20.50
2019-06-26T15:42:21.938Z,22.15
2019-06-26T15:44:50.318Z,21.40
2019-06-26T15:47:21.814Z,20.96
2019-06-26T15:49:50.238Z,20.64
2019-06-26T15:52:21.858Z,22.88
2019-06-26T15:57:24.415Z,23.34
2019-06-26T16:02:32.145Z,22.99
2019-06-26T16:05:11.482Z,26.23
2019-06-26T16:07:39.856Z,27.76
2019-06-26T16:10:08.177Z,26.61
2019-06-26T16:12:36.540Z,24.83
2019-06-26T16:15:10.986Z,24.89
2019-06-26T16:17:40.252Z,23.93
2019-06-26T16:20:08.604Z,25.96
2019-06-26T16:22:36.947Z,24.89
2019-06-26T16:25:06.250Z,24.31
2019-06-26T16:27:34.592Z,26.08
2019-06-26T16:32:42.371Z,27.60
2019-06-26T16:35:13.848Z,30.76
2019-06-26T16:37:44.100Z,33.95
2019-06-26T16:40:22.207Z,34.28
2019-06-26T16:42:55.288Z,34.89
2019-06-26T16:45:23.639Z,35.70
2019-06-26T16:47:53.902Z,37.76
2019-06-26T16:50:22.252Z,37.40
2019-06-26T16:52:50.608Z,37.56
2019-06-26T16:55:22.013Z,40.67
2019-06-26T16:57:50.417Z,38.63
2019-06-26T17:00:22.334Z,39.04
2019-06-26T17:03:20.725Z,39.23
2019-06-26T17:05:54.075Z,38.55
2019-06-26T17:08:34.773Z,40.33
2019-06-26T17:13:39.567Z,39.93
2019-06-26T17:16:07.974Z,42.01
2019-06-26T17:18:39.908Z,39.20
2019-06-26T17:21:12.704Z,40.42
2019-06-26T17:23:41.107Z,41.89
2019-06-26T17:26:25.438Z,40.33
2019-06-26T17:28:53.799Z,41.62
2019-06-26T17:31:25.266Z,40.31
2019-06-26T17:33:54.537Z,40.94
2019-06-26T17:36:23.526Z,42.00
2019-06-26T17:38:51.901Z,41.02
2019-06-26T17:41:22.510Z,43.27
2019-06-26T17:43:50.864Z,42.87
2019-06-26T17:46:19.270Z,43.13
2019-06-26T17:57:41.913Z,42.17
2019-06-26T18:00:10.253Z,42.42
2019-06-26T18:05:12.944Z,44.00
2019-06-26T18:07:42.273Z,44.52
2019-06-26T18:10:10.846Z,48.98
2019-06-26T18:15:13.528Z,47.58
2019-06-26T18:17:42.132Z,47.69
2019-06-26T18:20:10.475Z,49.11
2019-06-26T18:22:45.032Z,50.69
2019-06-26T18:25:16.471Z,50.10
2019-06-26T18:27:44.894Z,53.61
2019-06-26T18:30:13.264Z,54.64
2019-06-26T18:32:43.130Z,54.78
2019-06-26T18:35:11.490Z,59.73
2019-06-26T18:38:01.346Z,60.90
2019-06-26T18:43:04.025Z,63.98
2019-06-26T18:45:33.335Z,65.47
2019-06-26T18:48:01.729Z,60.03
2019-06-26T18:50:58.204Z,61.12
2019-06-26T18:56:00.949Z,64.25
2019-06-26T18:58:57.493Z,69.10
2019-06-26T19:01:30.507Z,66.85
2019-06-26T19:06:42.601Z,66.54
2019-06-26T19:09:28.430Z,64.75
2019-06-26T19:12:20.131Z,62.65
2019-06-26T19:17:30.925Z,67.53
2019-06-26T19:20:00.113Z,67.47
2019-06-26T19:22:28.472Z,67.30
2019-06-26T19:24:57.752Z,65.37
2019-06-26T19:27:28.948Z,64.98
2019-06-26T19:32:37.167Z,71.03
2019-06-26T19:37:36.365Z,68.25
2019-06-26T19:40:28.403Z,66.19
2019-06-26T19:43:27.739Z,68.51
2019-06-26T19:45:56.120Z,67.42
2019-06-26T19:48:28.821Z,68.78
2019-06-26T19:53:31.545Z,72.34
2019-06-26T19:58:34.270Z,73.83
2019-06-26T20:01:02.625Z,76.62
2019-06-26T20:03:31.002Z,76.61
2019-06-26T20:05:59.348Z,78.74
2019-06-26T20:08:27.719Z,78.36
2019-06-26T20:10:56.068Z,79.18
2019-06-26T20:13:24.428Z,80.40
2019-06-26T20:15:52.796Z,81.36
2019-06-26T20:20:56.209Z,79.25
2019-06-26T20:23:24.569Z,76.41
2019-06-26T20:25:52.926Z,77.39
2019-06-26T20:28:21.285Z,79.52
2019-06-26T20:30:49.641Z,81.85
2019-06-26T20:38:31.523Z,83.91
2019-06-26T20:40:59.865Z,83.76
2019-06-26T20:43:35.594Z,83.74
2019-06-26T20:46:03.913Z,82.39
2019-06-26T20:48:32.305Z,83.58
2019-06-26T20:51:00.706Z,82.91
2019-06-26T20:53:29.119Z,81.44
2019-06-26T20:55:57.470Z,81.60
2019-06-26T20:58:25.833Z,83.59
2019-06-26T21:00:54.190Z,81.30
2019-06-26T21:03:22.528Z,83.86
2019-06-26T21:05:50.897Z,81.97
2019-06-26T21:08:19.294Z,85.44
2019-06-26T21:10:47.652Z,87.06
2019-06-26T21:13:15.998Z,87.70
2019-06-26T21:15:44.370Z,88.79
2019-06-26T21:18:12.713Z,88.96
2019-06-26T21:20:41.080Z,88.68
2019-06-26T21:23:18.489Z,89.09
2019-06-26T21:25:37.778Z,87.24
2019-06-26T21:30:40.356Z,86.84
2019-06-26T21:33:08.702Z,86.58
2019-06-26T21:35:37.061Z,86.90
2019-06-26T21:38:05.405Z,86.48
2019-06-26T21:40:33.756Z,83.70
2019-06-26T21:45:38.481Z,84.28
2019-06-26T21:48:06.824Z,84.30
2019-06-26T21:50:35.185Z,84.05
2019-06-26T21:55:37.778Z,83.52
2019-06-26T22:03:21.713Z,85.74
2019-06-26T22:05:50.075Z,87.57
2019-06-26T22:08:19.379Z,86.21
2019-06-26T22:13:22.323Z,89.26
2019-06-26T22:15:50.741Z,90.98
2019-06-26T22:20:55.376Z,89.67
2019-06-26T22:23:23.718Z,92.25
2019-06-26T22:25:52.091Z,91.64
2019-06-26T22:28:20.440Z,88.92
2019-06-26T22:30:48.818Z,91.30
2019-06-26T22:33:17.262Z,93.14
2019-06-26T22:35:45.624Z,94.13
2019-06-26T22:38:14.021Z,91.25
2019-06-26T22:40:42.381Z,90.29
2019-06-26T22:43:10.818Z,92.16
2019-06-26T22:45:39.165Z,94.01
2019-06-26T22:48:07.519Z,94.54
2019-06-26T22:50:35.855Z,92.50
2019-06-26T22:53:04.224Z,93.97
2019-06-26T22:55:32.578Z,93.85
2019-06-26T22:58:00.949Z,94.12
2019-06-26T23:00:29.294Z,95.29
2019-06-26T23:02:57.674Z,91.27
2019-06-26T23:05:26.030Z,92.67
2019-06-26T23:10:29.654Z,94.58
2019-06-26T23:12:58.011Z,94.44
2019-06-26T23:15:26.374Z,94.06
2019-06-26T23:17:54.762Z,93.51
2019-06-26T23:20:26.287Z,91.99
2019-06-26T23:22:54.639Z,94.56
2019-06-26T23:27:59.210Z,91.42
2019-06-26T23:30:38.873Z,91.84
2019-06-26T23:33:07.222Z,93.87
2019-06-26T23:35:52.230Z,92.45
2019-06-26T23:41:05.526Z,92.05
2019-06-26T23:43:33.961Z,93.68
2019-06-26T23:46:02.283Z,94.64
2019-06-26T23:48:30.648Z,94.66
2019-06-26T23:50:58.999Z,96.16
2019-06-26T23:53:27.377Z,97.33
2019-06-26T23:55:55.737Z,96.39
2019-06-26T23:58:24.119Z,96.12
